createdAt,value
2019-05-10T00:00:55.683Z,10.29
2019-05-10T00:03:41.839Z,10.26
2019-05-10T00:06:30.181Z,10.25
2019-05-10T00:08:57.876Z,10.24
2019-05-10T00:11:27.993Z,10.25
2019-05-10T00:13:58.065Z,10.23
2019-05-10T00:16:26.944Z,10.23
2019-05-10T00:18:55.361Z,10.22
2019-05-10T00:21:23.822Z,10.22
2019-05-10T00:23:52.527Z,10.22
2019-05-10T00:26:22.510Z,10.22
2019-05-10T00:28:51.014Z,10.21
2019-05-10T00:31:19.488Z,10.20
2019-05-10T00:33:47.939Z,10.17
2019-05-10T00:36:18.952Z,10.15
2019-05-10T00:38:47.447Z,10.13
2019-05-10T00:41:17.416Z,10.11
2019-05-10T00:43:45.905Z,10.09
2019-05-10T00:46:14.356Z,10.09
2019-05-10T00:48:44.278Z,10.09
2019-05-10T00:51:16.050Z,10.10
2019-05-10T00:53:44.546Z,10.10
2019-05-10T00:56:13.037Z,10.09
2019-05-10T00:58:41.466Z,10.09
2019-05-10T01:01:10.578Z,10.08
2019-05-10T01:03:41.099Z,10.07
2019-05-10T01:06:11.105Z,10.04
2019-05-10T01:08:41.009Z,10.04
2019-05-10T01:11:10.957Z,10.02
2019-05-10T01:13:39.454Z,10.00
2019-05-10T01:16:07.890Z,9.99
2019-05-10T01:18:37.884Z,9.98
2019-05-10T01:21:07.788Z,9.98
2019-05-10T01:23:36.206Z,9.98
2019-05-10T01:26:04.755Z,9.98
2019-05-10T01:28:33.172Z,9.96
2019-05-10T01:31:01.580Z,9.97
2019-05-10T01:33:31.578Z,9.96
2019-05-10T01:35:59.985Z,9.96
2019-05-10T01:38:28.431Z,9.97
2019-05-10T01:40:56.837Z,9.98
2019-05-10T01:43:25.311Z,9.98
2019-05-10T01:45:53.749Z,9.96
2019-05-10T01:48:22.196Z,9.95
2019-05-10T01:50:50.630Z,9.94
2019-05-10T01:53:19.054Z,9.94
2019-05-10T01:55:52.094Z,9.93
2019-05-10T01:58:17.647Z,9.91
2019-05-10T02:00:46.071Z,9.89
2019-05-10T02:03:14.585Z,9.86
2019-05-10T02:05:43.004Z,9.84
2019-05-10T02:08:11.516Z,9.81
2019-05-10T02:10:40.809Z,9.79
2019-05-10T02:13:10.948Z,9.77
2019-05-10T02:15:39.445Z,9.74
2019-05-10T02:18:07.853Z,9.76
2019-05-10T02:20:37.814Z,9.76
2019-05-10T02:23:06.211Z,9.75
2019-05-10T02:25:34.794Z,9.74
2019-05-10T02:28:03.247Z,9.74
2019-05-10T02:30:31.698Z,9.74
2019-05-10T02:33:00.120Z,9.72
2019-05-10T02:35:28.571Z,9.69
2019-05-10T02:38:00.188Z,9.45
2019-05-10T02:40:28.632Z,9.66
2019-05-10T02:42:59.442Z,9.65
2019-05-10T02:45:27.952Z,9.61
2019-05-10T02:47:56.397Z,9.54
2019-05-10T02:50:24.834Z,9.45
2019-05-10T02:52:53.832Z,9.35
2019-05-10T02:55:23.712Z,9.28
2019-05-10T02:57:57.633Z,9.28
2019-05-10T03:00:26.724Z,9.27
2019-05-10T03:02:56.581Z,9.21
2019-05-10T03:05:27.600Z,9.26
2019-05-10T03:07:58.306Z,9.20
2019-05-10T03:10:29.778Z,9.10
2019-05-10T03:12:59.711Z,9.00
2019-05-10T03:15:31.197Z,8.92
2019-05-10T03:18:02.909Z,8.85
2019-05-10T03:20:33.615Z,8.73
2019-05-10T03:23:04.167Z,8.64
2019-05-10T03:25:34.111Z,8.59
2019-05-10T03:28:02.529Z,8.58
2019-05-10T03:30:31.049Z,8.58
2019-05-10T03:32:59.638Z,8.57
2019-05-10T03:35:28.337Z,8.54
2019-05-10T03:37:56.892Z,8.49
2019-05-10T03:40:25.341Z,8.43
2019-05-10T03:42:53.941Z,8.34
2019-05-10T03:45:22.441Z,8.30
2019-05-10T03:47:50.842Z,8.28
2019-05-10T03:50:19.240Z,8.22
2019-05-10T03:52:52.125Z,8.03
2019-05-10T03:55:17.806Z,8.13
2019-05-10T03:57:46.301Z,8.10
2019-05-10T04:00:15.071Z,8.07
2019-05-10T04:02:43.581Z,8.05
2019-05-10T04:05:14.987Z,8.02
2019-05-10T04:07:44.935Z,7.98
2019-05-10T04:10:14.149Z,7.91
2019-05-10T04:12:42.542Z,7.84
2019-05-10T04:15:12.978Z,7.80
2019-05-10T04:17:41.468Z,7.78
2019-05-10T04:20:10.297Z,7.79
2019-05-10T04:22:38.753Z,7.66
2019-05-10T04:25:09.194Z,7.66
2019-05-10T04:27:37.608Z,7.68
2019-05-10T04:30:07.671Z,7.65
2019-05-10T04:32:37.795Z,7.62
2019-05-10T04:35:07.727Z,7.59
2019-05-10T04:37:36.177Z,7.55
2019-05-10T04:40:09.273Z,7.54
2019-05-10T04:42:37.844Z,7.54
2019-05-10T04:45:07.091Z,7.56
2019-05-10T04:47:35.568Z,7.58
2019-05-10T04:50:05.707Z,7.62
2019-05-10T04:52:34.106Z,7.58
2019-05-10T04:55:02.551Z,7.72
2019-05-10T04:57:47.973Z,7.77
2019-05-10T05:00:01.151Z,7.83
2019-05-10T05:02:32.396Z,7.89
2019-05-10T05:05:02.622Z,7.98
2019-05-10T05:07:32.602Z,8.06
2019-05-10T05:10:01.174Z,8.16
2019-05-10T05:12:29.596Z,8.24
2019-05-10T05:14:59.554Z,8.34
2019-05-10T05:17:27.961Z,8.42
2019-05-10T05:19:58.045Z,8.56
2019-05-10T05:22:26.479Z,8.68
2019-05-10T05:25:00.444Z,8.80
2019-05-10T05:27:27.067Z,8.91
2019-05-10T05:29:55.692Z,9.05
2019-05-10T05:32:24.120Z,9.14
2019-05-10T05:34:52.720Z,9.26
2019-05-10T05:37:21.230Z,9.37
2019-05-10T05:39:49.601Z,9.51
2019-05-10T05:42:22.304Z,9.69
2019-05-10T05:44:48.141Z,10.00
2019-05-10T05:47:18.277Z,10.39
2019-05-10T05:49:46.686Z,10.66
2019-05-10T05:52:15.982Z,10.91
2019-05-10T05:54:44.428Z,11.15
2019-05-10T05:57:12.867Z,11.34
2019-05-10T05:59:41.368Z,11.37
2019-05-10T06:02:09.878Z,11.33
2019-05-10T06:04:40.760Z,11.39
2019-05-10T06:07:08.512Z,11.49
2019-05-10T06:09:39.385Z,11.59
2019-05-10T06:12:12.630Z,11.73
2019-05-10T06:14:43.063Z,11.85
2019-05-10T06:17:10.821Z,12.01
2019-05-10T06:19:39.206Z,12.19
2019-05-10T06:22:07.625Z,12.27
2019-05-10T06:24:36.302Z,12.23
2019-05-10T06:27:05.125Z,12.15
2019-05-10T06:29:33.567Z,12.01
2019-05-10T06:32:01.992Z,11.91
2019-05-10T06:34:31.788Z,11.86
2019-05-10T06:37:02.159Z,11.82
2019-05-10T06:39:30.677Z,11.75
2019-05-10T06:41:59.075Z,11.71
2019-05-10T06:44:31.144Z,11.68
2019-05-10T06:47:02.033Z,11.68
2019-05-10T06:49:32.116Z,11.65
2019-05-10T06:52:00.693Z,11.75
2019-05-10T06:54:29.116Z,12.02
2019-05-10T06:56:57.526Z,12.27
2019-05-10T06:59:26.367Z,12.33
2019-05-10T07:01:55.069Z,12.48
2019-05-10T07:04:23.518Z,12.72
2019-05-10T07:06:56.286Z,12.97
2019-05-10T07:09:26.277Z,13.33
2019-05-10T07:11:54.730Z,13.56
2019-05-10T07:14:25.578Z,13.86
2019-05-10T07:16:56.526Z,14.04
2019-05-10T07:19:23.500Z,14.01
2019-05-10T07:21:51.941Z,14.04
2019-05-10T07:24:25.298Z,14.08
2019-05-10T07:26:50.705Z,14.20
2019-05-10T07:29:29.976Z,14.30
2019-05-10T07:31:53.134Z,14.26
2019-05-10T07:34:21.633Z,14.35
2019-05-10T07:36:50.130Z,14.32
2019-05-10T07:39:18.562Z,14.25
2019-05-10T07:41:46.996Z,14.25
2019-05-10T07:44:16.287Z,14.22
2019-05-10T07:46:46.428Z,14.24
2019-05-10T07:49:14.941Z,14.24
2019-05-10T07:51:43.345Z,14.34
2019-05-10T07:54:11.817Z,14.50
2019-05-10T07:56:45.891Z,14.66
2019-05-10T07:59:10.392Z,14.80
2019-05-10T08:01:38.875Z,14.85
2019-05-10T08:04:09.018Z,14.97
2019-05-10T08:06:43.438Z,15.10
2019-05-10T08:09:09.927Z,15.08
2019-05-10T08:11:39.187Z,15.14
2019-05-10T08:14:11.063Z,15.18
2019-05-10T08:16:38.783Z,15.29
2019-05-10T08:19:09.001Z,15.28
2019-05-10T08:21:37.506Z,15.08
2019-05-10T08:24:13.335Z,14.86
2019-05-10T08:26:36.728Z,14.83
2019-05-10T08:29:07.607Z,14.62
2019-05-10T08:31:40.329Z,14.62
2019-05-10T08:34:06.969Z,14.77
2019-05-10T08:36:37.195Z,15.01
2019-05-10T08:39:10.740Z,15.26
2019-05-10T08:41:36.752Z,15.51
2019-05-10T08:44:16.556Z,15.40
2019-05-10T08:46:41.238Z,15.66
2019-05-10T08:49:07.102Z,15.43
2019-05-10T08:51:43.869Z,15.30
2019-05-10T08:54:07.424Z,15.15
2019-05-10T08:56:35.797Z,14.94
2019-05-10T08:59:09.398Z,14.77
2019-05-10T09:01:44.804Z,14.56
2019-05-10T09:04:07.133Z,14.37
2019-05-10T09:06:36.370Z,14.10
2019-05-10T09:09:08.519Z,13.82
2019-05-10T09:11:37.147Z,13.64
2019-05-10T09:14:12.329Z,13.57
2019-05-10T09:16:43.387Z,13.55
2019-05-10T09:19:07.952Z,13.56
2019-05-10T09:21:40.962Z,13.59
2019-05-10T09:24:12.842Z,13.64
2019-05-10T09:26:41.909Z,13.63
2019-05-10T09:29:12.152Z,13.61
2019-05-10T09:31:48.619Z,13.69
2019-05-10T09:34:12.496Z,13.93
2019-05-10T09:36:44.943Z,14.15
2019-05-10T09:39:17.554Z,14.30
2019-05-10T09:41:42.122Z,14.37
2019-05-10T09:44:13.087Z,14.46
2019-05-10T09:46:42.342Z,15.26
2019-05-10T09:49:15.602Z,16.10
2019-05-10T09:51:42.301Z,16.10
2019-05-10T09:54:11.138Z,16.18
2019-05-10T09:56:44.291Z,16.21
2019-05-10T09:59:09.766Z,16.32
2019-05-10T10:01:38.238Z,16.76
2019-05-10T10:04:06.773Z,16.76
2019-05-10T10:06:36.954Z,16.55
2019-05-10T10:09:10.897Z,16.30
2019-05-10T10:11:38.167Z,16.22
2019-05-10T10:14:07.931Z,16.29
2019-05-10T10:16:36.762Z,16.17
2019-05-10T10:19:07.159Z,16.04
2019-05-10T10:21:38.927Z,15.93
2019-05-10T10:24:15.694Z,16.10
2019-05-10T10:26:38.005Z,16.20
2019-05-10T10:29:07.360Z,16.39
2019-05-10T10:31:48.288Z,16.91
2019-05-10T10:34:07.594Z,17.17
2019-05-10T10:36:40.108Z,17.08
2019-05-10T10:39:09.080Z,17.03
2019-05-10T10:41:37.499Z,16.86
2019-05-10T10:44:08.259Z,16.72
2019-05-10T10:46:36.184Z,16.35
2019-05-10T10:49:05.531Z,16.19
2019-05-10T10:51:34.645Z,15.80
2019-05-10T10:54:03.553Z,15.12
2019-05-10T10:56:31.948Z,14.41
2019-05-10T10:59:01.927Z,14.32
2019-05-10T11:01:46.170Z,14.42
2019-05-10T11:04:07.862Z,14.67
2019-05-10T11:06:32.522Z,14.96
2019-05-10T11:09:01.865Z,15.10
2019-05-10T11:11:38.804Z,15.24
2019-05-10T11:14:07.323Z,15.20
2019-05-10T11:16:32.714Z,15.33
2019-05-10T11:19:03.804Z,15.33
2019-05-10T11:21:33.480Z,15.67
2019-05-10T11:24:01.735Z,15.87
2019-05-10T11:26:32.786Z,16.28
2019-05-10T11:29:01.337Z,16.28
2019-05-10T11:31:31.201Z,16.17
2019-05-10T11:34:01.850Z,16.29
2019-05-10T11:36:31.236Z,16.43
2019-05-10T11:39:01.562Z,16.48
2019-05-10T11:41:31.665Z,16.18
2019-05-10T11:44:05.461Z,15.96
2019-05-10T11:46:31.075Z,15.72
2019-05-10T11:49:01.730Z,15.39
2019-05-10T11:51:31.526Z,15.08
2019-05-10T11:54:00.119Z,14.81
2019-05-10T11:56:32.382Z,14.52
2019-05-10T11:59:02.492Z,14.29
2019-05-10T12:01:31.197Z,14.06
2019-05-10T12:04:04.740Z,14.00
2019-05-10T12:06:32.002Z,13.94
2019-05-10T12:09:06.606Z,13.90
2019-05-10T12:11:43.792Z,13.96
2019-05-10T12:14:05.603Z,13.99
2019-05-10T12:16:35.796Z,14.22
2019-05-10T12:19:14.906Z,14.67
2019-05-10T12:21:34.529Z,14.99
2019-05-10T12:24:26.363Z,15.59
2019-05-10T12:27:13.878Z,16.08
2019-05-10T12:29:12.292Z,16.16
2019-05-10T12:31:36.363Z,16.09
2019-05-10T12:34:09.050Z,15.81
2019-05-10T12:36:34.971Z,15.74
2019-05-10T12:39:06.783Z,16.37
2019-05-10T12:41:39.703Z,16.64
2019-05-10T12:44:07.406Z,17.23
2019-05-10T12:46:41.393Z,17.52
2019-05-10T12:49:07.433Z,17.78
2019-05-10T12:51:36.019Z,17.51
2019-05-10T12:54:04.614Z,17.25
2019-05-10T12:56:35.159Z,17.11
2019-05-10T12:59:03.226Z,17.04
2019-05-10T13:01:34.380Z,17.00
2019-05-10T13:04:13.885Z,16.93
2019-05-10T13:06:36.157Z,16.94
2019-05-10T13:09:09.090Z,17.02
2019-05-10T13:11:37.658Z,17.06
2019-05-10T13:14:09.721Z,17.08
2019-05-10T13:16:38.222Z,17.16
2019-05-10T13:19:06.825Z,17.16
2019-05-10T13:21:35.273Z,17.15
2019-05-10T13:24:06.861Z,17.24
2019-05-10T13:26:37.881Z,17.29
2019-05-10T13:29:10.310Z,17.33
2019-05-10T13:31:42.897Z,17.35
2019-05-10T13:34:10.386Z,17.38
2019-05-10T13:36:39.338Z,17.28
2019-05-10T13:39:12.344Z,17.01
2019-05-10T13:41:40.852Z,16.85
2019-05-10T13:44:11.662Z,16.58
2019-05-10T13:46:39.777Z,16.33
2019-05-10T13:49:08.447Z,16.01
2019-05-10T13:51:36.961Z,15.73
2019-05-10T13:54:08.280Z,15.78
2019-05-10T13:56:36.705Z,15.96
2019-05-10T13:59:15.815Z,16.13
2019-05-10T14:01:35.258Z,16.44
2019-05-10T14:04:04.391Z,16.59
2019-05-10T14:06:32.862Z,16.57
2019-05-10T14:09:02.996Z,16.89
2019-05-10T14:11:34.235Z,17.11
2019-05-10T14:14:01.790Z,17.40
2019-05-10T14:16:30.499Z,17.57
2019-05-10T14:18:58.893Z,17.62
2019-05-10T14:21:30.346Z,17.57
2019-05-10T14:23:58.725Z,17.48
2019-05-10T14:26:27.130Z,17.31
2019-05-10T14:28:55.637Z,17.06
2019-05-10T14:31:26.207Z,16.81
2019-05-10T14:36:25.005Z,16.67
2019-05-10T14:38:56.040Z,16.58
2019-05-10T14:41:23.720Z,16.51
2019-05-10T14:43:52.152Z,16.45
2019-05-10T14:46:20.633Z,16.30
2019-05-10T14:48:49.054Z,16.31
2019-05-10T14:57:01.503Z,16.61
2019-05-10T15:02:22.792Z,16.93
2019-05-10T15:04:52.252Z,16.95
2019-05-10T15:07:20.666Z,17.16
2019-05-10T15:09:54.190Z,17.27
2019-05-10T15:12:22.506Z,17.25
2019-05-10T15:14:49.523Z,17.29
2019-05-10T15:17:20.080Z,17.36
2019-05-10T15:19:56.260Z,17.43
2019-05-10T15:22:22.901Z,17.54
2019-05-10T15:24:48.345Z,17.67
2019-05-10T15:27:21.796Z,17.73
2019-05-10T15:29:46.930Z,17.79
2019-05-10T15:32:15.338Z,17.80
2019-05-10T15:35:04.271Z,17.91
2019-05-10T15:37:17.767Z,18.03
2019-05-10T15:39:49.303Z,17.96
2019-05-10T15:42:21.932Z,17.96
2019-05-10T15:44:49.526Z,17.95
2019-05-10T15:47:20.351Z,17.94
2019-05-10T15:49:54.514Z,17.97
2019-05-10T15:52:23.380Z,17.91
2019-05-10T15:54:50.075Z,17.84
2019-05-10T15:57:20.362Z,17.81
2019-05-10T15:59:56.779Z,17.68
2019-05-10T16:02:21.650Z,17.63
2019-05-10T16:04:50.074Z,17.63
2019-05-10T16:07:18.483Z,17.59
2019-05-10T16:09:50.040Z,17.53
2019-05-10T16:12:17.143Z,17.46
2019-05-10T16:14:47.197Z,17.43
2019-05-10T16:17:23.794Z,17.29
2019-05-10T16:19:58.904Z,17.23
2019-05-10T16:22:25.353Z,17.17
2019-05-10T16:25:00.973Z,17.07
2019-05-10T16:27:24.093Z,17.00
2019-05-10T16:29:52.602Z,16.87
2019-05-10T16:32:21.067Z,16.53
2019-05-10T16:34:49.605Z,16.47
2019-05-10T16:37:17.972Z,16.36
2019-05-10T16:39:46.452Z,16.30
2019-05-10T16:42:16.395Z,16.22
2019-05-10T16:44:44.777Z,16.26
2019-05-10T16:47:13.197Z,16.22
2019-05-10T16:49:41.682Z,16.14
2019-05-10T16:52:10.147Z,16.18
2019-05-10T16:54:41.399Z,16.30
2019-05-10T16:57:11.120Z,16.43
2019-05-10T16:59:39.436Z,16.51
2019-05-10T17:02:07.882Z,16.48
2019-05-10T17:04:37.459Z,16.37
2019-05-10T17:07:06.478Z,16.20
2019-05-10T17:09:34.855Z,16.09
2019-05-10T17:12:06.673Z,16.05
2019-05-10T17:14:35.046Z,15.97
2019-05-10T17:17:04.302Z,15.97
2019-05-10T17:19:34.200Z,15.86
2019-05-10T17:22:02.970Z,16.08
2019-05-10T17:24:31.394Z,16.27
2019-05-10T17:27:01.476Z,16.44
2019-05-10T17:29:32.546Z,16.59
2019-05-10T17:32:00.945Z,16.43
2019-05-10T17:34:34.118Z,16.49
2019-05-10T17:37:04.396Z,16.32
2019-05-10T17:39:34.191Z,16.09
2019-05-10T17:42:04.666Z,15.88
2019-05-10T17:44:32.744Z,15.67
2019-05-10T17:47:01.128Z,15.50
2019-05-10T17:49:29.664Z,15.42
2019-05-10T17:51:58.230Z,15.38
2019-05-10T17:54:26.724Z,15.29
2019-05-10T17:56:55.222Z,15.16
2019-05-10T17:59:23.641Z,15.03
2019-05-10T18:01:53.055Z,14.92
2019-05-10T18:04:21.588Z,14.84
2019-05-10T18:06:50.038Z,14.75
2019-05-10T18:09:19.939Z,14.67
2019-05-10T18:11:48.456Z,14.53
2019-05-10T18:14:17.827Z,14.38
2019-05-10T18:16:48.566Z,14.21
2019-05-10T18:19:23.966Z,14.05
2019-05-10T18:21:54.797Z,13.88
2019-05-10T18:24:23.723Z,13.73
2019-05-10T18:26:53.850Z,13.58
2019-05-10T18:29:22.266Z,13.44
2019-05-10T18:31:55.761Z,13.31
2019-05-10T18:34:26.398Z,13.19
2019-05-10T18:36:58.813Z,13.07
2019-05-10T18:39:27.181Z,12.93
2019-05-10T18:41:55.590Z,12.77
2019-05-10T18:44:24.019Z,12.63
2019-05-10T18:46:52.521Z,12.50
2019-05-10T18:49:21.111Z,12.37
2019-05-10T18:51:51.298Z,12.25
2019-05-10T18:54:19.714Z,12.13
2019-05-10T18:56:48.210Z,12.02
2019-05-10T18:59:18.463Z,11.90
2019-05-10T19:01:50.079Z,11.83
2019-05-10T19:04:20.905Z,11.75
2019-05-10T19:06:49.898Z,11.72
2019-05-10T19:09:19.417Z,11.72
2019-05-10T19:11:47.822Z,11.75
2019-05-10T19:14:16.338Z,11.79
2019-05-10T19:16:44.720Z,11.86
2019-05-10T19:19:15.550Z,11.93
2019-05-10T19:21:43.944Z,11.97
2019-05-10T19:24:13.882Z,11.98
2019-05-10T19:26:42.299Z,11.98
2019-05-10T19:29:10.827Z,11.98
2019-05-10T19:31:43.979Z,12.01
2019-05-10T19:34:15.188Z,12.01
2019-05-10T19:36:42.518Z,12.03
2019-05-10T19:39:11.007Z,12.03
2019-05-10T19:41:43.696Z,12.03
2019-05-10T19:44:12.079Z,12.03
2019-05-10T19:46:40.911Z,12.01
2019-05-10T19:49:13.252Z,11.99
2019-05-10T19:51:42.032Z,11.96
2019-05-10T19:54:13.608Z,11.93
2019-05-10T19:56:39.904Z,11.89
2019-05-10T19:59:11.654Z,11.87
2019-05-10T20:01:38.451Z,11.83
2019-05-10T20:04:09.377Z,11.81
2019-05-10T20:06:37.178Z,11.77
2019-05-10T20:09:10.170Z,11.74
2019-05-10T20:11:38.647Z,11.70
2019-05-10T20:14:07.653Z,11.66
2019-05-10T20:16:52.300Z,11.63
2019-05-10T20:19:09.488Z,11.60
2019-05-10T20:21:40.590Z,11.60
2019-05-10T20:24:09.278Z,11.60
2019-05-10T20:26:37.848Z,11.62
2019-05-10T20:29:06.245Z,11.62
2019-05-10T20:31:34.636Z,11.60
2019-05-10T20:34:03.043Z,11.59
2019-05-10T20:36:31.565Z,11.58
2019-05-10T20:39:02.255Z,11.59
2019-05-10T20:41:30.719Z,11.60
2019-05-10T20:43:59.657Z,11.64
2019-05-10T20:46:28.079Z,11.64
2019-05-10T20:48:56.540Z,11.65
2019-05-10T20:51:24.938Z,11.65
2019-05-10T20:53:53.443Z,11.63
2019-05-10T20:56:21.877Z,11.61
2019-05-10T20:58:50.323Z,11.57
2019-05-10T21:01:18.724Z,11.54
2019-05-10T21:03:47.382Z,11.54
2019-05-10T21:06:16.000Z,11.54
2019-05-10T21:08:44.392Z,11.54
2019-05-10T21:11:12.994Z,11.55
2019-05-10T21:13:41.406Z,11.56
2019-05-10T21:16:10.097Z,11.57
2019-05-10T21:18:38.487Z,11.58
2019-05-10T21:21:08.494Z,11.58
2019-05-10T21:23:36.874Z,11.59
2019-05-10T21:26:06.853Z,11.57
2019-05-10T21:28:35.819Z,11.56
2019-05-10T21:31:04.242Z,11.54
2019-05-10T21:33:32.720Z,11.54
2019-05-10T21:36:01.140Z,11.55
2019-05-10T21:38:33.992Z,11.55
2019-05-10T21:41:02.496Z,11.54
2019-05-10T21:43:31.100Z,11.56
2019-05-10T21:45:59.499Z,11.42
2019-05-10T21:48:28.381Z,11.57
2019-05-10T21:50:57.681Z,11.55
2019-05-10T21:53:26.206Z,11.55
2019-05-10T21:55:54.624Z,11.53
2019-05-10T21:58:23.362Z,11.52
2019-05-10T22:00:53.649Z,11.51
2019-05-10T22:03:22.162Z,11.48
2019-05-10T22:05:57.974Z,11.47
2019-05-10T22:08:26.570Z,11.44
2019-05-10T22:10:56.689Z,11.43
2019-05-10T22:13:25.126Z,11.42
2019-05-10T22:15:53.576Z,11.40
2019-05-10T22:18:22.338Z,11.39
2019-05-10T22:20:50.804Z,11.37
2019-05-10T22:23:19.256Z,11.33
2019-05-10T22:25:47.686Z,11.31
2019-05-10T22:28:16.115Z,11.30
2019-05-10T22:30:45.508Z,11.30
2019-05-10T22:33:15.424Z,11.29
2019-05-10T22:35:43.896Z,11.29
2019-05-10T22:38:12.430Z,11.29
2019-05-10T22:40:40.930Z,11.29
2019-05-10T22:43:09.343Z,11.30
2019-05-10T22:45:37.833Z,11.33
2019-05-10T22:48:06.229Z,11.32
2019-05-10T22:50:34.677Z,11.34
2019-05-10T22:53:03.272Z,11.33
2019-05-10T22:55:31.718Z,11.36
2019-05-10T22:58:00.117Z,11.37
2019-05-10T23:00:28.685Z,11.32
2019-05-10T23:02:57.117Z,11.30
2019-05-10T23:05:25.542Z,11.28
2019-05-10T23:07:53.963Z,11.29
2019-05-10T23:10:22.513Z,11.30
2019-05-10T23:12:50.969Z,11.33
2019-05-10T23:15:19.400Z,11.36
2019-05-10T23:17:47.824Z,11.14
2019-05-10T23:20:17.940Z,11.42
2019-05-10T23:22:46.367Z,11.42
2019-05-10T23:25:14.797Z,11.39
2019-05-10T23:27:43.290Z,11.37
2019-05-10T23:30:11.934Z,11.33
2019-05-10T23:32:40.525Z,11.33
2019-05-10T23:35:09.072Z,11.29
2019-05-10T23:37:37.507Z,11.25
2019-05-10T23:40:07.868Z,11.23
2019-05-10T23:42:36.346Z,11.20
2019-05-10T23:45:06.793Z,11.15
2019-05-10T23:47:35.237Z,11.15
2019-05-10T23:50:05.247Z,11.15
2019-05-10T23:52:33.690Z,11.05
2019-05-10T23:55:02.127Z,11.11
2019-05-10T23:57:30.574Z,11.08
2019-05-10T23:59:58.998Z,11.09
